createdAt,value
2018-04-08T00:01:56.490Z,49.80
2018-04-08T00:04:24.052Z,49.20
2018-04-08T00:06:51.622Z,50.90
2018-04-08T00:09:19.173Z,51.10
2018-04-08T00:11:46.746Z,55.30
2018-04-08T00:14:14.299Z,51.20
2018-04-08T00:16:41.871Z,55.60
2018-04-08T00:19:10.196Z,50.50
2018-04-08T00:21:37.768Z,51.10
2018-04-08T00:24:05.315Z,50.80
2018-04-08T00:26:32.883Z,53.20
2018-04-08T00:29:00.426Z,52.20
2018-04-08T00:31:27.991Z,50.00
2018-04-08T00:33:55.547Z,51.20
2018-04-08T00:36:23.117Z,51.00
2018-04-08T00:38:50.710Z,52.90
2018-04-08T00:41:18.327Z,50.40
2018-04-08T00:43:45.878Z,53.90
2018-04-08T00:46:14.194Z,54.10
2018-04-08T00:48:41.771Z,53.90
2018-04-08T00:51:09.359Z,52.10
2018-04-08T00:53:37.699Z,51.00
2018-04-08T00:56:06.134Z,51.00
2018-04-08T00:58:33.707Z,51.50
2018-04-08T01:01:01.250Z,52.70
2018-04-08T01:03:28.830Z,52.70
2018-04-08T01:05:56.375Z,53.40
2018-04-08T01:08:23.941Z,50.10
2018-04-08T01:10:52.394Z,53.20
2018-04-08T01:13:20.735Z,49.70
2018-04-08T01:15:48.291Z,49.70
2018-04-08T01:18:15.865Z,50.00
2018-04-08T01:20:43.437Z,53.50
2018-04-08T01:23:11.011Z,52.80
2018-04-08T01:25:40.146Z,51.60
2018-04-08T01:28:07.714Z,51.60
2018-04-08T01:30:35.259Z,51.80
2018-04-08T01:33:02.831Z,52.40
2018-04-08T01:35:31.147Z,51.10
2018-04-08T01:37:58.720Z,50.50
2018-04-08T01:40:26.271Z,51.60
2018-04-08T01:42:54.614Z,52.20
2018-04-08T01:45:22.727Z,52.10
2018-04-08T01:47:51.071Z,54.10
2018-04-08T01:50:18.625Z,54.30
2018-04-08T01:52:46.206Z,51.20
2018-04-08T01:55:13.764Z,55.50
2018-04-08T01:57:42.120Z,54.60
2018-04-08T02:00:09.673Z,54.70
2018-04-08T02:02:37.226Z,53.40
2018-04-08T02:05:05.572Z,51.70
2018-04-08T02:07:33.127Z,51.60
2018-04-08T02:10:00.704Z,54.10
2018-04-08T02:12:28.246Z,54.70
2018-04-08T02:14:55.816Z,51.20
2018-04-08T02:17:23.366Z,51.00
2018-04-08T02:19:50.938Z,54.20
2018-04-08T02:22:18.481Z,52.80
2018-04-08T02:24:46.041Z,52.30
2018-04-08T02:27:13.582Z,53.20
2018-04-08T02:29:41.150Z,55.90
2018-04-08T02:32:08.692Z,51.60
2018-04-08T02:34:37.033Z,55.60
2018-04-08T02:37:04.581Z,55.70
2018-04-08T02:39:32.150Z,52.40
2018-04-08T02:41:59.696Z,52.80
2018-04-08T02:44:27.272Z,51.70
2018-04-08T02:46:54.823Z,57.50
2018-04-08T02:49:23.159Z,52.70
2018-04-08T02:51:50.717Z,52.70
2018-04-08T02:54:18.296Z,52.50
2018-04-08T02:56:45.853Z,52.80
2018-04-08T02:59:13.428Z,54.50
2018-04-08T03:01:40.975Z,53.20
2018-04-08T03:04:08.535Z,52.80
2018-04-08T03:06:36.102Z,57.20
2018-04-08T03:09:03.645Z,55.70
2018-04-08T03:11:31.219Z,51.90
2018-04-08T03:13:59.538Z,57.00
2018-04-08T03:16:27.888Z,53.60
2018-04-08T03:18:55.434Z,53.60
2018-04-08T03:21:23.807Z,53.50
2018-04-08T03:23:51.364Z,55.20
2018-04-08T03:26:18.945Z,53.30
2018-04-08T03:28:46.506Z,53.20
2018-04-08T03:31:14.079Z,55.30
2018-04-08T03:33:42.411Z,56.40
2018-04-08T03:36:09.977Z,56.30
2018-04-08T03:38:37.573Z,56.50
2018-04-08T03:41:05.111Z,54.00
2018-04-08T03:43:32.665Z,55.50
2018-04-08T03:46:00.239Z,57.60
2018-04-08T03:48:27.786Z,54.20
2018-04-08T03:50:55.350Z,55.10
2018-04-08T03:53:23.077Z,54.70
2018-04-08T03:55:50.639Z,52.10
2018-04-08T03:58:18.184Z,55.50
2018-04-08T04:00:45.756Z,53.70
2018-04-08T04:03:13.303Z,53.70
2018-04-08T04:05:40.879Z,57.90
2018-04-08T04:08:08.424Z,55.20
2018-04-08T04:10:35.999Z,56.10
2018-04-08T04:13:03.546Z,54.30
2018-04-08T04:15:31.166Z,56.60
2018-04-08T04:17:58.716Z,53.60
2018-04-08T04:20:38.127Z,56.60
2018-04-08T04:23:17.426Z,54.90
2018-04-08T04:25:56.750Z,55.40
2018-04-08T04:28:24.294Z,56.10
2018-04-08T04:30:52.632Z,54.00
2018-04-08T04:33:20.181Z,54.00
2018-04-08T04:35:47.734Z,53.10
2018-04-08T04:38:15.305Z,53.90
2018-04-08T04:40:42.851Z,52.50
2018-04-08T04:43:11.329Z,54.60
2018-04-08T04:45:39.023Z,55.90
2018-04-08T04:48:06.570Z,54.40
2018-04-08T04:50:34.122Z,53.20
2018-04-08T04:53:02.613Z,55.80
2018-04-08T04:55:30.925Z,54.90
2018-04-08T04:58:00.290Z,56.70
2018-04-08T05:00:28.918Z,58.20
2018-04-08T05:02:57.468Z,56.70
2018-04-08T05:05:25.880Z,58.70
2018-04-08T05:07:54.888Z,55.00
2018-04-08T05:10:23.122Z,55.90
2018-04-08T05:12:51.454Z,56.60
2018-04-08T05:15:20.662Z,53.50
2018-04-08T05:17:48.991Z,53.50
2018-04-08T05:20:17.400Z,59.30
2018-04-08T05:22:45.631Z,60.90
2018-04-08T05:25:13.864Z,56.10
2018-04-08T05:27:42.018Z,56.60
2018-04-08T05:30:10.980Z,56.70
2018-04-08T05:32:41.062Z,53.90
2018-04-08T05:35:09.293Z,54.70
2018-04-08T05:37:38.499Z,57.10
2018-04-08T05:40:08.489Z,57.20
2018-04-08T05:42:36.980Z,53.50
2018-04-08T05:45:05.834Z,57.90
2018-04-08T05:47:33.999Z,55.60
2018-04-08T05:50:03.027Z,58.40
2018-04-08T05:52:30.655Z,57.90
2018-04-08T05:54:58.231Z,57.10
2018-04-08T05:57:26.560Z,59.20
2018-04-08T05:59:54.125Z,59.20
2018-04-08T06:02:21.667Z,60.10
2018-04-08T06:04:50.066Z,58.90
2018-04-08T06:07:17.611Z,58.70
2018-04-08T06:09:45.179Z,58.30
2018-04-08T06:12:12.731Z,64.50
2018-04-08T06:14:41.854Z,64.70
2018-04-08T06:17:10.745Z,63.10
2018-04-08T06:19:39.306Z,62.50
2018-04-08T06:22:07.558Z,60.70
2018-04-08T06:24:37.145Z,61.80
2018-04-08T06:27:06.605Z,57.10
2018-04-08T06:29:35.885Z,57.10
2018-04-08T06:32:05.041Z,56.90
2018-04-08T06:34:33.501Z,56.90
2018-04-08T06:37:01.858Z,56.70
2018-04-08T06:39:30.429Z,56.80
2018-04-08T06:41:58.911Z,54.80
2018-04-08T06:44:27.536Z,54.00
2018-04-08T06:46:56.055Z,54.20
2018-04-08T06:49:25.876Z,53.80
2018-04-08T06:51:54.296Z,53.00
2018-04-08T06:54:23.089Z,53.10
2018-04-08T06:56:52.196Z,50.20
2018-04-08T06:59:20.823Z,50.20
2018-04-08T07:01:49.198Z,48.50
2018-04-08T07:04:18.371Z,47.10
2018-04-08T07:06:46.675Z,46.90
2018-04-08T07:09:15.109Z,45.80
2018-04-08T07:11:43.421Z,45.00
2018-04-08T07:14:11.967Z,44.80
2018-04-08T07:16:41.465Z,44.10
2018-04-08T07:19:10.012Z,44.00
2018-04-08T07:21:38.357Z,41.80
2018-04-08T07:24:07.068Z,43.50
2018-04-08T07:26:36.501Z,44.10
2018-04-08T07:29:04.884Z,44.40
2018-04-08T07:31:32.555Z,45.90
2018-04-08T07:34:00.880Z,43.20
2018-04-08T07:36:28.455Z,43.20
2018-04-08T07:38:56.003Z,40.40
2018-04-08T07:41:23.570Z,42.60
2018-04-08T07:43:51.126Z,39.30
2018-04-08T07:46:19.732Z,41.30
2018-04-08T07:48:47.302Z,38.70
2018-04-08T07:51:15.647Z,42.30
2018-04-08T07:53:43.207Z,42.30
2018-04-08T07:56:10.779Z,39.80
2018-04-08T07:58:38.325Z,34.30
2018-04-08T08:01:05.906Z,38.60
2018-04-08T08:03:33.471Z,39.60
2018-04-08T08:06:01.829Z,38.30
2018-04-08T08:08:29.390Z,37.30
2018-04-08T08:10:56.966Z,39.00
2018-04-08T08:13:24.510Z,36.60
2018-04-08T08:15:52.083Z,35.50
2018-04-08T08:18:20.430Z,34.70
2018-04-08T08:20:48.003Z,34.50
2018-04-08T08:23:15.550Z,32.00
2018-04-08T08:25:43.128Z,33.80
2018-04-08T08:28:11.455Z,35.60
2018-04-08T08:30:39.027Z,35.70
2018-04-08T08:33:06.570Z,37.00
2018-04-08T08:35:34.144Z,31.30
2018-04-08T08:38:01.751Z,34.00
2018-04-08T08:40:29.322Z,32.60
2018-04-08T08:42:56.883Z,34.10
2018-04-08T08:45:24.455Z,32.20
2018-04-08T08:47:51.993Z,30.90
2018-04-08T08:50:19.547Z,32.00
2018-04-08T08:52:47.127Z,29.90
2018-04-08T08:55:14.690Z,29.40
2018-04-08T08:57:42.262Z,30.60
2018-04-08T09:00:09.808Z,31.30
2018-04-08T09:02:37.378Z,34.90
2018-04-08T09:05:04.935Z,28.00
2018-04-08T09:07:32.514Z,27.50
2018-04-08T09:10:01.686Z,28.10
2018-04-08T09:12:29.258Z,28.10
2018-04-08T09:14:56.807Z,27.30
2018-04-08T09:17:24.394Z,31.00
2018-04-08T09:19:53.454Z,31.00
2018-04-08T09:22:26.587Z,27.90
2018-04-08T09:24:59.807Z,29.80
2018-04-08T09:27:28.146Z,29.30
2018-04-08T09:29:55.707Z,29.30
2018-04-08T09:32:23.290Z,29.30
2018-04-08T09:34:50.838Z,31.40
2018-04-08T09:37:18.417Z,25.00
2018-04-08T09:39:45.971Z,29.10
2018-04-08T09:42:13.548Z,25.20
2018-04-08T09:44:41.102Z,30.00
2018-04-08T09:47:08.665Z,28.40
2018-04-08T09:49:36.206Z,28.50
2018-04-08T09:52:04.550Z,27.20
2018-04-08T09:54:32.098Z,27.30
2018-04-08T09:56:59.668Z,27.60
2018-04-08T09:59:28.731Z,30.70
2018-04-08T10:02:11.919Z,30.10
2018-04-08T10:04:41.238Z,28.50
2018-04-08T10:07:08.809Z,28.70
2018-04-08T10:09:36.361Z,23.50
2018-04-08T10:12:04.040Z,24.90
2018-04-08T10:14:31.612Z,26.70
2018-04-08T10:16:59.191Z,25.40
2018-04-08T10:19:26.760Z,27.10
2018-04-08T10:21:54.315Z,26.10
2018-04-08T10:24:21.896Z,25.60
2018-04-08T10:26:50.219Z,23.40
2018-04-08T10:29:17.792Z,23.60
2018-04-08T10:31:45.347Z,27.70
2018-04-08T10:34:12.922Z,26.10
2018-04-08T10:36:40.484Z,24.30
2018-04-08T10:39:08.063Z,26.40
2018-04-08T10:41:36.378Z,24.30
2018-04-08T10:44:03.951Z,24.50
2018-04-08T10:46:31.505Z,26.30
2018-04-08T10:48:59.081Z,27.50
2018-04-08T10:51:26.631Z,27.20
2018-04-08T10:53:54.211Z,24.30
2018-04-08T10:56:21.771Z,25.80
2018-04-08T10:58:49.352Z,25.00
2018-04-08T11:01:16.917Z,26.80
2018-04-08T11:03:44.491Z,26.60
2018-04-08T11:06:12.047Z,27.40
2018-04-08T11:08:39.618Z,26.20
2018-04-08T11:11:07.178Z,28.60
2018-04-08T11:13:34.748Z,26.70
2018-04-08T11:16:02.584Z,29.30
2018-04-08T11:18:30.162Z,28.90
2018-04-08T11:20:57.713Z,28.30
2018-04-08T11:23:25.301Z,28.20
2018-04-08T11:25:52.852Z,29.30
2018-04-08T11:28:20.422Z,29.00
2018-04-08T11:30:47.974Z,29.60
2018-04-08T11:33:15.559Z,30.60
2018-04-08T11:35:43.135Z,29.70
2018-04-08T11:38:10.689Z,31.00
2018-04-08T11:40:39.039Z,31.80
2018-04-08T11:43:06.599Z,31.50
2018-04-08T11:45:34.180Z,30.60
2018-04-08T11:48:01.746Z,31.30
2018-04-08T11:50:30.082Z,31.40
2018-04-08T11:52:57.626Z,31.20
2018-04-08T11:55:25.202Z,32.10
2018-04-08T11:57:52.759Z,32.30
2018-04-08T12:00:20.341Z,32.10
2018-04-08T12:02:47.895Z,32.20
2018-04-08T12:05:15.566Z,32.80
2018-04-08T12:07:43.115Z,33.20
2018-04-08T12:10:10.751Z,33.40
2018-04-08T12:12:38.314Z,31.50
2018-04-08T12:15:05.903Z,30.80
2018-04-08T12:17:33.446Z,29.50
2018-04-08T12:20:01.024Z,31.00
2018-04-08T12:22:28.587Z,30.80
2018-04-08T12:24:56.167Z,29.70
2018-04-08T12:27:24.059Z,30.00
2018-04-08T12:29:51.737Z,29.10
2018-04-08T12:32:20.058Z,29.10
2018-04-08T12:34:47.641Z,29.00
2018-04-08T12:37:15.294Z,29.50
2018-04-08T12:39:43.155Z,30.30
2018-04-08T12:42:10.706Z,28.80
2018-04-08T12:44:39.027Z,28.90
2018-04-08T12:47:06.614Z,28.90
2018-04-08T12:49:34.171Z,29.50
2018-04-08T12:52:01.745Z,29.10
2018-04-08T12:54:29.307Z,29.80
2018-04-08T12:56:56.886Z,27.70
2018-04-08T12:59:24.443Z,27.70
2018-04-08T13:01:52.791Z,28.40
2018-04-08T13:04:20.352Z,28.30
2018-04-08T13:06:47.934Z,28.60
2018-04-08T13:09:15.496Z,28.80
2018-04-08T13:11:43.839Z,28.80
2018-04-08T13:14:11.401Z,28.80
2018-04-08T13:16:38.985Z,28.30
2018-04-08T13:19:06.534Z,28.60
2018-04-08T13:21:34.109Z,28.00
2018-04-08T13:24:02.422Z,28.30
2018-04-08T13:26:29.986Z,28.20
2018-04-08T13:28:57.548Z,28.80
2018-04-08T13:31:25.122Z,28.20
2018-04-08T13:33:52.679Z,28.00
2018-04-08T13:36:20.259Z,27.40
2018-04-08T13:38:48.969Z,28.20
2018-04-08T13:41:17.328Z,27.70
2018-04-08T13:43:45.664Z,27.30
2018-04-08T13:46:13.230Z,27.20
2018-04-08T13:48:40.783Z,26.80
2018-04-08T13:51:09.131Z,27.10
2018-04-08T13:53:36.687Z,27.20
2018-04-08T13:56:04.266Z,25.90
2018-04-08T13:58:31.828Z,25.50
2018-04-08T14:00:59.374Z,26.80
2018-04-08T14:03:26.947Z,26.20
2018-04-08T14:05:54.499Z,25.60
2018-04-08T14:08:22.155Z,25.70
2018-04-08T14:10:49.706Z,25.80
2018-04-08T14:13:17.309Z,25.50
2018-04-08T14:15:44.863Z,25.90
2018-04-08T14:18:12.446Z,25.40
2018-04-08T14:20:40.797Z,25.30
2018-04-08T14:23:09.129Z,24.50
2018-04-08T14:25:36.677Z,24.60
2018-04-08T14:28:04.324Z,25.40
2018-04-08T14:30:32.650Z,25.70
2018-04-08T14:33:00.221Z,25.80
2018-04-08T14:35:27.778Z,24.40
2018-04-08T14:37:55.362Z,24.50
2018-04-08T14:40:22.915Z,25.80
2018-04-08T14:42:50.498Z,26.10
2018-04-08T14:45:18.815Z,24.60
2018-04-08T14:47:46.393Z,24.70
2018-04-08T14:50:13.938Z,24.70
2018-04-08T14:52:41.505Z,25.50
2018-04-08T14:55:09.060Z,25.40
2018-04-08T14:57:36.639Z,24.00
2018-04-08T15:00:04.192Z,24.60
2018-04-08T15:02:31.783Z,24.30
2018-04-08T15:04:59.339Z,24.80
2018-04-08T15:07:26.910Z,23.60
2018-04-08T15:09:55.226Z,24.70
2018-04-08T15:12:22.853Z,24.70
2018-04-08T15:14:50.378Z,23.90
2018-04-08T15:17:17.975Z,25.00
2018-04-08T15:19:45.522Z,25.50
2018-04-08T15:22:13.078Z,25.90
2018-04-08T15:24:40.651Z,24.00
2018-04-08T15:27:08.194Z,24.80
2018-04-08T15:29:35.793Z,25.00
2018-04-08T15:32:03.343Z,25.20
2018-04-08T15:34:30.919Z,25.30
2018-04-08T15:36:58.468Z,25.50
2018-04-08T15:39:26.042Z,24.80
2018-04-08T15:41:53.599Z,25.90
2018-04-08T15:44:21.947Z,25.60
2018-04-08T15:46:49.495Z,25.70
2018-04-08T15:49:17.071Z,26.10
2018-04-08T15:51:44.626Z,26.60
2018-04-08T15:54:12.240Z,26.50
2018-04-08T15:56:39.775Z,26.00
2018-04-08T15:59:07.350Z,26.30
2018-04-08T16:01:34.907Z,26.40
2018-04-08T16:04:03.159Z,26.70
2018-04-08T16:06:30.708Z,27.20
2018-04-08T16:08:58.974Z,27.30
2018-04-08T16:11:26.648Z,27.50
2018-04-08T16:13:54.252Z,27.30
2018-04-08T16:16:21.807Z,28.20
2018-04-08T16:18:49.384Z,27.80
2018-04-08T16:21:17.739Z,28.00
2018-04-08T16:23:45.308Z,27.90
2018-04-08T16:26:12.864Z,28.70
2018-04-08T16:28:40.417Z,28.00
2018-04-08T16:31:07.999Z,28.80
2018-04-08T16:33:35.550Z,28.90
2018-04-08T16:36:03.890Z,29.30
2018-04-08T16:38:31.434Z,29.30
2018-04-08T16:40:59.005Z,29.50
2018-04-08T16:43:26.605Z,30.00
2018-04-08T16:45:54.167Z,30.00
2018-04-08T16:48:21.716Z,30.60
2018-04-08T16:50:49.289Z,30.40
2018-04-08T16:53:17.612Z,31.10
2018-04-08T16:55:45.198Z,31.10
2018-04-08T16:58:12.773Z,31.70
2018-04-08T17:00:40.354Z,31.60
2018-04-08T17:03:07.903Z,31.60
2018-04-08T17:05:35.491Z,32.00
2018-04-08T17:08:03.060Z,32.20
2018-04-08T17:10:30.639Z,32.40
2018-04-08T17:12:58.275Z,32.20
2018-04-08T17:15:25.855Z,32.30
2018-04-08T17:17:53.409Z,32.60
2018-04-08T17:20:20.986Z,33.30
2018-04-08T17:22:48.543Z,33.30
2018-04-08T17:25:16.142Z,33.00
2018-04-08T17:27:44.856Z,33.70
2018-04-08T17:30:13.542Z,33.60
2018-04-08T17:32:41.970Z,34.60
2018-04-08T17:35:10.154Z,35.60
2018-04-08T17:37:38.809Z,36.10
2018-04-08T17:40:07.894Z,36.00
2018-04-08T17:42:36.374Z,37.00
2018-04-08T17:45:04.968Z,38.70
2018-04-08T17:47:34.287Z,38.10
2018-04-08T17:50:02.888Z,38.10
2018-04-08T17:52:31.307Z,38.80
2018-04-08T17:55:01.399Z,39.40
2018-04-08T17:57:29.485Z,39.40
2018-04-08T17:59:58.816Z,38.10
2018-04-08T18:02:27.171Z,39.60
2018-04-08T18:04:55.353Z,40.10
2018-04-08T18:07:24.305Z,39.40
2018-04-08T18:09:53.285Z,40.00
2018-04-08T18:12:21.872Z,40.50
2018-04-08T18:14:51.717Z,41.50
2018-04-08T18:17:20.010Z,40.90
2018-04-08T18:19:48.413Z,42.10
2018-04-08T18:22:16.672Z,41.80
2018-04-08T18:24:44.943Z,43.10
2018-04-08T18:27:13.197Z,41.50
2018-04-08T18:29:42.835Z,42.60
2018-04-08T18:32:11.333Z,42.50
2018-04-08T18:34:39.840Z,41.60
2018-04-08T18:37:08.460Z,42.20
2018-04-08T18:39:37.196Z,42.70
2018-04-08T18:42:05.578Z,41.50
2018-04-08T18:44:33.197Z,41.20
2018-04-08T18:47:00.818Z,42.80
2018-04-08T18:49:28.365Z,43.20
2018-04-08T18:51:56.707Z,40.70
2018-04-08T18:54:24.267Z,40.70
2018-04-08T18:56:51.843Z,41.10
2018-04-08T18:59:19.389Z,40.60
2018-04-08T19:01:46.970Z,41.40
2018-04-08T19:04:14.523Z,43.80
2018-04-08T19:06:42.090Z,41.60
2018-04-08T19:09:10.412Z,43.20
2018-04-08T19:11:37.986Z,43.00
2018-04-08T19:14:05.565Z,41.20
2018-04-08T19:16:33.139Z,40.60
2018-04-08T19:19:01.460Z,41.50
2018-04-08T19:21:29.048Z,41.40
2018-04-08T19:23:56.635Z,43.70
2018-04-08T19:26:24.193Z,41.40
2018-04-08T19:28:52.535Z,42.80
2018-04-08T19:31:20.093Z,42.70
2018-04-08T19:33:47.675Z,43.40
2018-04-08T19:36:15.224Z,43.20
2018-04-08T19:38:42.798Z,42.40
2018-04-08T19:41:10.342Z,42.70
2018-04-08T19:43:37.911Z,42.20
2018-04-08T19:46:05.454Z,43.30
2018-04-08T19:48:33.032Z,42.00
2018-04-08T19:51:00.591Z,41.90
2018-04-08T19:53:28.922Z,43.30
2018-04-08T19:55:56.474Z,43.10
2018-04-08T19:58:24.047Z,44.70
2018-04-08T20:00:52.358Z,43.90
2018-04-08T20:03:19.932Z,43.90
2018-04-08T20:05:47.494Z,43.30
2018-04-08T20:08:15.826Z,45.80
2018-04-08T20:10:43.385Z,45.70
2018-04-08T20:13:10.963Z,43.90
2018-04-08T20:15:38.503Z,44.70
2018-04-08T20:18:06.148Z,44.70
2018-04-08T20:20:34.435Z,43.00
2018-04-08T20:23:02.056Z,43.00
2018-04-08T20:25:29.619Z,43.60
2018-04-08T20:27:57.202Z,43.00
2018-04-08T20:30:24.750Z,43.00
2018-04-08T20:32:52.325Z,43.70
2018-04-08T20:35:19.902Z,44.40
2018-04-08T20:37:47.458Z,44.40
2018-04-08T20:40:15.064Z,45.70
2018-04-08T20:42:43.371Z,46.40
2018-04-08T20:45:10.953Z,46.30
2018-04-08T20:47:40.014Z,47.30
2018-04-08T20:50:07.590Z,46.90
2018-04-08T20:52:35.134Z,47.90
2018-04-08T20:55:02.707Z,45.20
2018-04-08T20:57:30.259Z,44.50
2018-04-08T20:59:57.843Z,45.90
2018-04-08T21:02:25.394Z,44.20
2018-04-08T21:04:52.965Z,47.60
2018-04-08T21:07:20.511Z,45.20
2018-04-08T21:09:48.862Z,46.80
2018-04-08T21:12:16.447Z,46.70
2018-04-08T21:14:44.028Z,45.40
2018-04-08T21:17:11.583Z,44.50
2018-04-08T21:19:39.155Z,47.80
2018-04-08T21:22:07.482Z,45.40
2018-04-08T21:24:35.061Z,45.30
2018-04-08T21:27:02.616Z,46.30
2018-04-08T21:29:30.203Z,44.40
2018-04-08T21:31:57.756Z,45.90
2018-04-08T21:34:25.359Z,47.50
2018-04-08T21:36:52.905Z,48.60
2018-04-08T21:39:20.483Z,46.80
2018-04-08T21:41:48.030Z,46.70
2018-04-08T21:44:15.594Z,45.60
2018-04-08T21:46:43.165Z,50.10
2018-04-08T21:49:10.755Z,47.60
2018-04-08T21:51:38.315Z,46.80
2018-04-08T21:54:05.870Z,47.30
2018-04-08T21:56:34.206Z,48.20
2018-04-08T21:59:01.755Z,48.30
2018-04-08T22:01:29.331Z,46.30
2018-04-08T22:03:56.882Z,45.70
2018-04-08T22:06:24.463Z,46.40
2018-04-08T22:08:52.013Z,47.40
2018-04-08T22:11:19.587Z,47.80
2018-04-08T22:13:47.146Z,48.40
2018-04-08T22:16:14.715Z,48.10
2018-04-08T22:18:42.266Z,48.40
2018-04-08T22:21:09.844Z,49.00
2018-04-08T22:23:37.389Z,49.20
2018-04-08T22:26:04.966Z,48.50
2018-04-08T22:28:32.518Z,49.50
2018-04-08T22:31:00.100Z,46.60
2018-04-08T22:33:27.651Z,48.20
2018-04-08T22:35:55.230Z,47.80
2018-04-08T22:38:23.538Z,48.00
2018-04-08T22:40:51.130Z,48.00
2018-04-08T22:43:18.688Z,47.50
2018-04-08T22:45:46.263Z,52.50
2018-04-08T22:48:13.824Z,50.50
2018-04-08T22:50:42.172Z,48.90
2018-04-08T22:53:09.727Z,49.10
2018-04-08T22:55:38.071Z,50.40
2018-04-08T22:58:05.628Z,50.40
2018-04-08T23:00:33.184Z,51.80
2018-04-08T23:03:00.752Z,51.10
2018-04-08T23:05:29.035Z,48.80
2018-04-08T23:07:56.607Z,50.40
2018-04-08T23:10:24.159Z,52.40
2018-04-08T23:12:51.736Z,49.50
2018-04-08T23:15:19.335Z,50.50
2018-04-08T23:17:46.910Z,49.10
2018-04-08T23:20:14.466Z,48.70
2018-04-08T23:22:42.047Z,50.50
2018-04-08T23:25:09.593Z,49.10
2018-04-08T23:27:37.177Z,49.40
2018-04-08T23:30:04.738Z,52.90
2018-04-08T23:32:32.311Z,49.80
2018-04-08T23:34:59.853Z,53.10
2018-04-08T23:37:27.422Z,55.00
2018-04-08T23:39:54.973Z,50.30
2018-04-08T23:42:22.543Z,50.90
2018-04-08T23:44:50.113Z,50.60
2018-04-08T23:47:17.687Z,52.70
2018-04-08T23:49:45.230Z,53.40
2018-04-08T23:52:12.803Z,49.80
2018-04-08T23:54:40.349Z,50.20
2018-04-08T23:57:07.927Z,52.60
2018-04-08T23:59:36.252Z,51.20
